createdAt,value
2022-10-05T00:01:39.829Z,98591.00
2022-10-05T00:04:18.604Z,98607.00
2022-10-05T00:07:02.266Z,98604.00
2022-10-05T00:09:37.134Z,98596.00
2022-10-05T00:12:17.146Z,98598.00
2022-10-05T00:14:58.249Z,98604.00
2022-10-05T00:17:33.145Z,98609.00
2022-10-05T00:20:25.455Z,98601.00
2022-10-05T00:23:07.939Z,98597.00
2022-10-05T00:25:42.810Z,98601.00
2022-10-05T00:28:26.948Z,98587.00
2022-10-05T00:31:01.910Z,98587.00
2022-10-05T00:33:36.746Z,98583.00
2022-10-05T00:36:11.881Z,98585.00
2022-10-05T00:38:46.965Z,98587.00
2022-10-05T00:41:29.324Z,98581.00
2022-10-05T00:44:45.094Z,98587.00
2022-10-05T00:47:54.792Z,98581.00
2022-10-05T00:50:42.975Z,98587.00
2022-10-05T00:53:43.345Z,98587.00
2022-10-05T00:56:45.813Z,98583.00
2022-10-05T00:59:59.108Z,98575.00
2022-10-05T01:02:47.708Z,98582.00
2022-10-05T01:05:56.760Z,98583.00
2022-10-05T01:08:46.759Z,98597.00
2022-10-05T01:11:43.563Z,98594.00
2022-10-05T01:15:09.974Z,98582.00
2022-10-05T01:18:17.139Z,98579.00
2022-10-05T01:21:06.512Z,98590.00
2022-10-05T01:24:07.117Z,98581.00
2022-10-05T01:27:07.798Z,98580.00
2022-10-05T01:29:59.450Z,98576.00
2022-10-05T01:33:05.787Z,98577.00
2022-10-05T01:36:05.191Z,98571.00
2022-10-05T01:39:16.465Z,98571.00
2022-10-05T01:42:26.611Z,98568.00
2022-10-05T01:45:25.679Z,98573.00
2022-10-05T01:48:16.599Z,98564.00
2022-10-05T01:51:04.000Z,98561.00
2022-10-05T01:54:12.565Z,98559.00
2022-10-05T01:57:18.147Z,98558.00
2022-10-05T02:00:11.322Z,98539.00
2022-10-05T02:02:57.495Z,98540.00
2022-10-05T02:05:40.223Z,98553.00
2022-10-05T02:08:27.536Z,98554.00
2022-10-05T02:11:09.490Z,98545.00
2022-10-05T02:13:54.279Z,98549.00
2022-10-05T02:16:33.992Z,98554.00
2022-10-05T02:19:32.480Z,98542.00
2022-10-05T02:22:13.453Z,98539.00
2022-10-05T02:24:55.227Z,98546.00
2022-10-05T02:28:08.911Z,98528.00
2022-10-05T02:31:00.273Z,98530.00
2022-10-05T02:33:36.282Z,98516.00
2022-10-05T02:36:24.340Z,98518.00
2022-10-05T02:39:25.022Z,98526.00
2022-10-05T02:42:32.940Z,98521.00
2022-10-05T02:45:07.828Z,98522.00
2022-10-05T02:48:34.762Z,98525.00
2022-10-05T02:51:58.527Z,98541.00
2022-10-05T02:55:02.584Z,98544.00
2022-10-05T02:57:54.941Z,98540.00
2022-10-05T03:00:39.060Z,98547.00
2022-10-05T03:03:23.108Z,98545.00
2022-10-05T03:06:26.087Z,98547.00
2022-10-05T03:09:06.293Z,98542.00
2022-10-05T03:12:26.674Z,98545.00
2022-10-05T03:15:23.062Z,98544.00
2022-10-05T03:18:15.925Z,98542.00
2022-10-05T03:21:01.800Z,98541.00
2022-10-05T03:23:49.580Z,98541.00
2022-10-05T03:27:18.624Z,98541.00
2022-10-05T03:30:06.419Z,98535.00
2022-10-05T03:32:55.874Z,98516.00
2022-10-05T03:36:07.131Z,98516.00
2022-10-05T03:38:51.676Z,98515.00
2022-10-05T03:41:42.975Z,98514.00
2022-10-05T03:44:52.927Z,98507.00
2022-10-05T03:47:36.890Z,98505.00
2022-10-05T03:50:41.514Z,98500.00
2022-10-05T03:53:32.294Z,98502.00
2022-10-05T03:56:20.183Z,98493.00
2022-10-05T03:59:16.732Z,98489.00
2022-10-05T04:02:01.374Z,98491.00
2022-10-05T04:04:50.947Z,98493.00
2022-10-05T04:07:46.871Z,98490.00
2022-10-05T04:10:29.976Z,98483.00
2022-10-05T04:13:29.398Z,98497.00
2022-10-05T04:16:14.878Z,98495.00
2022-10-05T04:19:00.285Z,98486.00
2022-10-05T04:21:51.388Z,98487.00
2022-10-05T04:25:21.197Z,98480.00
2022-10-05T04:28:32.578Z,98490.00
2022-10-05T04:31:20.983Z,98489.00
2022-10-05T04:34:27.059Z,98488.00
2022-10-05T04:37:08.551Z,98485.00
2022-10-05T04:40:29.029Z,98478.00
2022-10-05T04:43:50.963Z,98478.00
2022-10-05T04:47:08.895Z,98487.00
2022-10-05T04:50:00.170Z,98486.00
2022-10-05T04:53:00.616Z,98491.00
2022-10-05T04:56:03.223Z,98489.00
2022-10-05T04:58:57.070Z,98498.00
2022-10-05T05:02:03.734Z,98505.00
2022-10-05T05:05:17.076Z,98518.00
2022-10-05T05:08:25.117Z,98520.00
2022-10-05T05:11:29.320Z,98528.00
2022-10-05T05:14:32.054Z,98534.00
2022-10-05T05:17:34.980Z,98528.00
2022-10-05T05:20:48.928Z,98528.00
2022-10-05T05:23:43.435Z,98521.00
2022-10-05T05:26:55.685Z,98534.00
2022-10-05T05:29:57.931Z,98531.00
2022-10-05T05:33:02.310Z,98540.00
2022-10-05T05:36:18.311Z,98549.00
2022-10-05T05:39:29.500Z,98549.00
2022-10-05T05:42:39.241Z,98555.00
2022-10-05T05:45:43.158Z,98551.00
2022-10-05T05:48:43.223Z,98561.00
2022-10-05T05:51:40.253Z,98555.00
2022-10-05T05:54:37.393Z,98564.00
2022-10-05T05:57:52.052Z,98560.00
2022-10-05T06:00:36.610Z,98566.00
2022-10-05T06:03:36.030Z,98570.00
2022-10-05T06:06:16.847Z,98570.00
2022-10-05T06:09:00.661Z,98578.00
2022-10-05T06:12:05.691Z,98581.00
2022-10-05T06:14:49.714Z,98576.00
2022-10-05T06:17:36.804Z,98588.00
2022-10-05T06:20:36.715Z,98595.00
2022-10-05T06:23:24.002Z,98596.00
2022-10-05T06:26:24.841Z,98604.00
2022-10-05T06:29:07.543Z,98597.00
2022-10-05T06:32:05.966Z,98599.00
2022-10-05T06:35:45.959Z,98608.00
2022-10-05T06:39:02.808Z,98598.00
2022-10-05T06:41:54.213Z,98606.00
2022-10-05T06:45:00.731Z,98615.00
2022-10-05T06:48:05.418Z,98612.00
2022-10-05T06:51:44.284Z,98615.00
2022-10-05T06:55:00.999Z,98617.00
2022-10-05T06:58:12.214Z,98611.00
2022-10-05T07:00:54.521Z,98618.00
2022-10-05T07:04:16.013Z,98616.00
2022-10-05T07:07:01.730Z,98616.00
2022-10-05T07:09:56.246Z,98619.00
2022-10-05T07:12:44.595Z,98615.00
2022-10-05T07:15:54.691Z,98625.00
2022-10-05T07:18:47.797Z,98629.00
2022-10-05T07:21:52.448Z,98624.00
2022-10-05T07:24:38.285Z,98622.00
2022-10-05T07:27:24.143Z,98624.00
2022-10-05T07:30:11.803Z,98613.00
2022-10-05T07:33:21.105Z,98629.00
2022-10-05T07:36:54.582Z,98620.00
2022-10-05T07:40:00.295Z,98633.00
2022-10-05T07:43:00.482Z,98621.00
2022-10-05T07:45:48.019Z,98624.00
2022-10-05T07:48:57.323Z,98625.00
2022-10-05T07:52:11.302Z,98630.00
2022-10-05T07:55:13.019Z,98635.00
2022-10-05T07:58:33.809Z,98642.00
2022-10-05T08:01:29.646Z,98636.00
2022-10-05T08:04:27.020Z,98638.00
2022-10-05T08:07:07.059Z,98643.00
2022-10-05T08:10:00.968Z,98630.00
2022-10-05T08:12:51.625Z,98636.00
2022-10-05T08:15:43.130Z,98637.00
2022-10-05T08:18:55.285Z,98630.00
2022-10-05T08:21:52.048Z,98635.00
2022-10-05T08:24:55.376Z,98632.00
2022-10-05T08:27:49.957Z,98635.00
2022-10-05T08:30:25.304Z,98630.00
2022-10-05T08:33:10.243Z,98631.00
2022-10-05T08:35:55.784Z,98628.00
2022-10-05T08:38:33.976Z,98616.00
2022-10-05T08:41:59.497Z,98621.00
2022-10-05T08:44:49.449Z,98614.00
2022-10-05T08:47:55.911Z,98609.00
2022-10-05T08:51:04.703Z,98612.00
2022-10-05T08:54:46.021Z,98621.00
2022-10-05T08:57:56.597Z,98616.00
2022-10-05T09:01:11.966Z,98610.00
2022-10-05T09:04:14.447Z,98615.00
2022-10-05T09:07:09.896Z,98614.00
2022-10-05T09:10:04.807Z,98610.00
2022-10-05T09:13:13.109Z,98607.00
2022-10-05T09:16:28.309Z,98603.00
2022-10-05T09:19:47.545Z,98595.00
2022-10-05T09:22:53.847Z,98601.00
2022-10-05T09:25:58.713Z,98601.00
2022-10-05T09:29:29.602Z,98597.00
2022-10-05T09:32:40.247Z,98595.00
2022-10-05T09:36:03.048Z,98594.00
2022-10-05T09:38:44.024Z,98593.00
2022-10-05T09:41:39.531Z,98585.00
2022-10-05T09:45:01.626Z,98583.00
2022-10-05T09:48:13.889Z,98575.00
2022-10-05T09:51:26.619Z,98577.00
2022-10-05T09:54:37.057Z,98574.00
2022-10-05T09:57:53.246Z,98572.00
2022-10-05T10:01:29.138Z,98563.00
2022-10-05T10:04:14.396Z,98561.00
2022-10-05T10:06:55.087Z,98556.00
2022-10-05T10:10:09.040Z,98555.00
2022-10-05T10:13:04.358Z,98544.00
2022-10-05T10:16:06.781Z,98548.00
2022-10-05T10:19:03.237Z,98540.00
2022-10-05T10:22:09.468Z,98541.00
2022-10-05T10:25:38.024Z,98536.00
2022-10-05T10:29:01.909Z,98534.00
2022-10-05T10:32:01.731Z,98531.00
2022-10-05T10:35:07.796Z,98530.00
2022-10-05T10:38:40.633Z,98531.00
2022-10-05T10:42:12.106Z,98521.00
2022-10-05T10:45:45.427Z,98513.00
2022-10-05T10:48:29.348Z,98511.00
2022-10-05T10:51:44.274Z,98508.00
2022-10-05T10:54:19.135Z,98512.00
2022-10-05T10:57:10.133Z,98503.00
2022-10-05T11:00:21.716Z,98499.00
2022-10-05T11:03:46.124Z,98503.00
2022-10-05T11:07:04.496Z,98489.00
2022-10-05T11:10:49.439Z,98485.00
2022-10-05T11:14:04.818Z,98486.00
2022-10-05T11:17:03.275Z,98483.00
2022-10-05T11:20:03.701Z,98472.00
2022-10-05T11:22:58.639Z,98478.00
2022-10-05T11:25:46.508Z,98477.00
2022-10-05T11:29:11.200Z,98468.00
2022-10-05T11:32:33.930Z,98461.00
2022-10-05T11:35:24.705Z,98449.00
2022-10-05T11:38:48.233Z,98449.00
2022-10-05T11:41:32.919Z,98449.00
2022-10-05T11:44:28.856Z,98442.00
2022-10-05T11:47:30.468Z,98443.00
2022-10-05T11:50:20.859Z,98443.00
2022-10-05T11:53:32.294Z,98440.00
2022-10-05T11:56:34.629Z,98440.00
2022-10-05T11:59:18.994Z,98436.00
2022-10-05T12:02:21.905Z,98434.00
2022-10-05T12:05:11.728Z,98443.00
2022-10-05T12:08:11.291Z,98443.00
2022-10-05T12:11:10.788Z,98436.00
2022-10-05T12:14:00.472Z,98430.00
2022-10-05T12:17:17.823Z,98434.00
2022-10-05T12:19:59.591Z,98433.00
2022-10-05T12:23:20.896Z,98423.00
2022-10-05T12:26:08.180Z,98426.00
2022-10-05T12:29:13.271Z,98426.00
2022-10-05T12:32:33.969Z,98420.00
2022-10-05T12:35:47.450Z,98413.00
2022-10-05T12:38:35.301Z,98406.00
2022-10-05T12:41:28.626Z,98413.00
2022-10-05T12:44:43.184Z,98405.00
2022-10-05T12:47:58.895Z,98405.00
2022-10-05T12:50:42.531Z,98394.00
2022-10-05T12:53:49.378Z,98401.00
2022-10-05T12:56:37.373Z,98395.00
2022-10-05T12:59:46.077Z,98391.00
2022-10-05T13:03:08.535Z,98393.00
2022-10-05T13:06:14.698Z,98386.00
2022-10-05T13:08:58.850Z,98382.00
2022-10-05T13:11:45.612Z,98378.00
2022-10-05T13:14:35.624Z,98376.00
2022-10-05T13:17:21.609Z,98384.00
2022-10-05T13:20:02.442Z,98379.00
2022-10-05T13:22:43.905Z,98386.00
2022-10-05T13:25:45.908Z,98380.00
2022-10-05T13:28:47.561Z,98380.00
2022-10-05T13:31:29.359Z,98379.00
2022-10-05T13:34:33.407Z,98381.00
2022-10-05T13:37:20.449Z,98385.00
2022-10-05T13:40:29.146Z,98386.00
2022-10-05T13:43:25.313Z,98378.00
2022-10-05T13:46:44.571Z,98375.00
2022-10-05T13:49:34.882Z,98375.00
2022-10-05T13:52:54.339Z,98382.00
2022-10-05T13:55:50.004Z,98382.00
2022-10-05T13:58:45.505Z,98389.00
2022-10-05T14:01:41.666Z,98388.00
2022-10-05T14:04:24.831Z,98387.00
2022-10-05T14:07:34.989Z,98387.00
2022-10-05T14:10:18.364Z,98384.00
2022-10-05T14:12:55.240Z,98391.00
2022-10-05T14:15:41.389Z,98389.00
2022-10-05T14:18:24.922Z,98386.00
2022-10-05T14:21:08.088Z,98389.00
2022-10-05T14:23:43.247Z,98392.00
2022-10-05T14:26:25.675Z,98393.00
2022-10-05T14:29:35.812Z,98395.00
2022-10-05T14:32:17.027Z,98396.00
2022-10-05T14:35:12.972Z,98399.00
2022-10-05T14:37:53.919Z,98401.00
2022-10-05T14:40:37.438Z,98400.00
2022-10-05T14:43:21.540Z,98392.00
2022-10-05T14:46:03.434Z,98395.00
2022-10-05T14:48:45.827Z,98387.00
2022-10-05T14:51:31.948Z,98390.00
2022-10-05T14:54:32.259Z,98391.00
2022-10-05T14:57:29.231Z,98391.00
2022-10-05T15:00:14.292Z,98386.00
2022-10-05T15:03:19.797Z,98384.00
2022-10-05T15:06:01.537Z,98388.00
2022-10-05T15:09:17.278Z,98381.00
2022-10-05T15:11:57.830Z,98388.00
2022-10-05T15:14:43.346Z,98383.00
2022-10-05T15:17:34.247Z,98374.00
2022-10-05T15:20:26.558Z,98384.00
2022-10-05T15:23:30.698Z,98383.00
2022-10-05T15:26:44.937Z,98383.00
2022-10-05T15:29:52.036Z,98379.00
2022-10-05T15:33:08.927Z,98383.00
2022-10-05T15:36:08.191Z,98372.00
2022-10-05T15:39:35.247Z,98384.00
2022-10-05T15:42:38.261Z,98384.00
2022-10-05T15:45:32.220Z,98383.00
2022-10-05T15:48:46.386Z,98378.00
2022-10-05T15:51:40.809Z,98384.00
2022-10-05T15:54:49.809Z,98382.00
2022-10-05T15:57:39.667Z,98391.00
2022-10-05T16:00:22.659Z,98391.00
2022-10-05T16:03:30.349Z,98389.00
2022-10-05T16:06:42.635Z,98394.00
2022-10-05T16:09:47.331Z,98390.00
2022-10-05T16:12:40.576Z,98399.00
2022-10-05T16:15:26.515Z,98396.00
2022-10-05T16:18:36.581Z,98405.00
2022-10-05T16:21:51.526Z,98403.00
2022-10-05T16:25:11.530Z,98408.00
2022-10-05T16:28:29.905Z,98416.00
2022-10-05T16:31:37.494Z,98422.00
2022-10-05T16:34:33.452Z,98428.00
2022-10-05T16:37:31.986Z,98420.00
2022-10-05T16:40:33.930Z,98426.00
2022-10-05T16:43:30.263Z,98427.00
2022-10-05T16:46:37.274Z,98428.00
2022-10-05T16:49:30.555Z,98429.00
2022-10-05T16:52:19.341Z,98435.00
2022-10-05T16:55:02.808Z,98435.00
2022-10-05T16:57:56.683Z,98436.00
2022-10-05T17:01:00.771Z,98441.00
2022-10-05T17:04:13.245Z,98441.00
2022-10-05T17:07:14.950Z,98441.00
2022-10-05T17:10:38.269Z,98450.00
2022-10-05T17:14:10.785Z,98441.00
2022-10-05T17:17:05.630Z,98454.00
2022-10-05T17:20:15.632Z,98460.00
2022-10-05T17:23:29.264Z,98462.00
2022-10-05T17:26:09.782Z,98460.00
2022-10-05T17:29:09.479Z,98471.00
2022-10-05T17:32:06.139Z,98475.00
2022-10-05T17:35:01.073Z,98471.00
2022-10-05T17:37:42.611Z,98482.00
2022-10-05T17:40:39.175Z,98477.00
2022-10-05T17:43:17.126Z,98478.00
2022-10-05T17:45:55.710Z,98482.00
2022-10-05T17:48:48.930Z,98486.00
2022-10-05T17:51:48.027Z,98488.00
2022-10-05T17:55:08.218Z,98492.00
2022-10-05T17:57:43.194Z,98485.00
2022-10-05T18:00:35.399Z,98495.00
2022-10-05T18:03:44.546Z,98491.00
2022-10-05T18:06:35.391Z,98490.00
2022-10-05T18:09:22.437Z,98502.00
2022-10-05T18:12:16.177Z,98506.00
2022-10-05T18:14:57.331Z,98515.00
2022-10-05T18:17:41.064Z,98512.00
2022-10-05T18:20:23.928Z,98509.00
2022-10-05T18:23:09.261Z,98506.00
2022-10-05T18:26:15.952Z,98518.00
2022-10-05T18:29:14.228Z,98522.00
2022-10-05T18:32:02.846Z,98530.00
2022-10-05T18:34:57.697Z,98528.00
2022-10-05T18:37:57.629Z,98528.00
2022-10-05T18:40:44.355Z,98530.00
2022-10-05T18:43:51.071Z,98528.00
2022-10-05T18:47:00.703Z,98531.00
2022-10-05T18:50:24.379Z,98530.00
2022-10-05T18:53:13.502Z,98535.00
2022-10-05T18:56:02.239Z,98539.00
2022-10-05T18:59:01.583Z,98551.00
2022-10-05T19:02:06.248Z,98551.00
2022-10-05T19:04:50.999Z,98547.00
2022-10-05T19:07:59.322Z,98560.00
2022-10-05T19:11:05.123Z,98562.00
2022-10-05T19:14:01.153Z,98564.00
2022-10-05T19:16:45.389Z,98572.00
2022-10-05T19:19:43.823Z,98585.00
2022-10-05T19:22:36.367Z,98589.00
2022-10-05T19:25:59.712Z,98593.00
2022-10-05T19:28:59.646Z,98598.00
2022-10-05T19:31:50.266Z,98600.00
2022-10-05T19:34:58.971Z,98609.00
2022-10-05T19:37:45.571Z,98608.00
2022-10-05T19:40:39.002Z,98616.00
2022-10-05T19:43:32.594Z,98620.00
2022-10-05T19:46:31.725Z,98627.00
2022-10-05T19:49:10.599Z,98633.00
2022-10-05T19:51:51.502Z,98628.00
2022-10-05T19:54:31.039Z,98635.00
2022-10-05T19:57:17.845Z,98629.00
2022-10-05T19:59:57.878Z,98641.00
2022-10-05T20:02:33.362Z,98645.00
2022-10-05T20:05:08.709Z,98648.00
2022-10-05T20:07:43.807Z,98646.00
2022-10-05T20:10:29.326Z,98657.00
2022-10-05T20:13:05.317Z,98655.00
2022-10-05T20:15:58.801Z,98662.00
2022-10-05T20:19:04.369Z,98664.00
2022-10-05T20:22:00.423Z,98670.00
2022-10-05T20:24:50.875Z,98679.00
2022-10-05T20:27:49.288Z,98686.00
2022-10-05T20:30:27.495Z,98680.00
2022-10-05T20:33:04.668Z,98684.00
2022-10-05T20:35:39.715Z,98695.00
2022-10-05T20:38:14.664Z,98702.00
2022-10-05T20:40:49.640Z,98695.00
2022-10-05T20:43:24.652Z,98699.00
2022-10-05T20:45:59.742Z,98704.00
2022-10-05T20:48:36.062Z,98704.00
2022-10-05T20:51:10.978Z,98703.00
2022-10-05T20:53:46.262Z,98704.00
2022-10-05T20:56:21.243Z,98714.00
2022-10-05T20:58:56.350Z,98719.00
2022-10-05T21:01:34.218Z,98724.00
2022-10-05T21:04:09.644Z,98719.00
2022-10-05T21:06:45.319Z,98722.00
2022-10-05T21:09:21.514Z,98724.00
2022-10-05T21:11:56.639Z,98728.00
2022-10-05T21:14:34.297Z,98728.00
2022-10-05T21:17:10.483Z,98734.00
2022-10-05T21:19:46.467Z,98746.00
2022-10-05T21:22:22.328Z,98735.00
2022-10-05T21:24:58.404Z,98742.00
2022-10-05T21:27:33.501Z,98741.00
2022-10-05T21:30:09.397Z,98742.00
2022-10-05T21:32:44.995Z,98746.00
2022-10-05T21:35:20.072Z,98749.00
2022-10-05T21:37:55.056Z,98757.00
2022-10-05T21:40:30.031Z,98756.00
2022-10-05T21:43:05.088Z,98760.00
2022-10-05T21:45:40.562Z,98763.00
2022-10-05T21:48:16.721Z,98758.00
2022-10-05T21:50:51.635Z,98765.00
2022-10-05T21:53:31.008Z,98767.00
2022-10-05T21:56:12.130Z,98770.00
2022-10-05T21:58:47.602Z,98763.00
2022-10-05T22:01:23.176Z,98766.00
2022-10-05T22:03:58.268Z,98765.00
2022-10-05T22:06:34.367Z,98774.00
2022-10-05T22:09:09.521Z,98778.00
2022-10-05T22:11:47.883Z,98770.00
2022-10-05T22:14:22.935Z,98774.00
2022-10-05T22:16:57.930Z,98776.00
2022-10-05T22:19:32.963Z,98777.00
2022-10-05T22:22:11.781Z,98780.00
2022-10-05T22:24:47.091Z,98776.00
2022-10-05T22:27:24.840Z,98779.00
2022-10-05T22:30:00.095Z,98788.00
2022-10-05T22:32:35.132Z,98797.00
2022-10-05T22:35:11.704Z,98787.00
2022-10-05T22:37:46.904Z,98791.00
2022-10-05T22:40:21.815Z,98800.00
2022-10-05T22:42:56.973Z,98796.00
2022-10-05T22:45:32.851Z,98796.00
2022-10-05T22:48:07.933Z,98799.00
2022-10-05T22:50:47.128Z,98788.00
2022-10-05T22:53:22.035Z,98797.00
2022-10-05T22:55:56.989Z,98801.00
2022-10-05T22:58:31.948Z,98807.00
2022-10-05T23:01:14.358Z,98809.00
2022-10-05T23:03:49.470Z,98800.00
2022-10-05T23:06:26.606Z,98800.00
2022-10-05T23:09:01.609Z,98802.00
2022-10-05T23:11:36.608Z,98807.00
2022-10-05T23:14:11.748Z,98806.00
2022-10-05T23:16:47.678Z,98816.00
2022-10-05T23:19:23.346Z,98826.00
2022-10-05T23:21:58.293Z,98816.00
2022-10-05T23:24:33.903Z,98823.00
2022-10-05T23:27:08.835Z,98820.00
2022-10-05T23:29:44.115Z,98821.00
2022-10-05T23:32:18.996Z,98827.00
2022-10-05T23:34:53.964Z,98822.00
2022-10-05T23:37:29.140Z,98823.00
2022-10-05T23:40:06.325Z,98827.00
2022-10-05T23:42:42.016Z,98824.00
2022-10-05T23:45:17.091Z,98818.00
2022-10-05T23:47:51.985Z,98839.00
2022-10-05T23:50:26.987Z,98843.00
2022-10-05T23:53:01.960Z,98833.00
2022-10-05T23:55:37.407Z,98839.00
2022-10-05T23:58:12.599Z,98836.00
